Denham, Australia
Current Conditions -  °F | °C
As of 3:00 PM on Friday 24 Oct 2014 (Local Time) from YCAR Reporting Station
Clear Clear  
Wind Chill: 77°   Ceiling: Unl
Heat Index: 79°   Visibility: 6mi
Dew Point: 59°   Wind: 18mph
Humidity: 54%   Direction: 220°SW
Pressure: 29.94"   Gusts: NA
Location:  25.93°S, 113.53°E
Report Text: YCAR 240700Z AUTO 22016KT 9999 // NCD 25/15 Q1014
Loading
Personal Weather Stations






























Interactive Weather Map
Tropical Storm Tracking
New forecast layout! Learn more

10-Day Weather Forecast

Advertisements
Track Severe Weather on mobile